Terminal Aerodrome Forecast
Issued by NWS El Paso, TX

Home | Current Version | Previous Version | Text Only | Print | Product List | Glossary On
Versions: 1 2 3 4 5 6 7 8 9 10 11 12 13
662
FTUS44 KEPZ 202005 AAA
TAFELP
TAF AMD
KELP 202005Z 2020/2118 27013G23KT P6SM FEW080
     FM210300 27010KT P6SM FEW080=

USA.gov is the U.S. government's official web portal to all federal, state and local government web resources and services.